Time;durP1;ratioP1;P1;durP2;ratioP2;P2;SDS_P1;SDS_P2;PMS_P1;PMS_P2;Temp;Humidity;BMP_temperature;BMP_pressure;BME280_temperature;BME280_humidity;BME280_pressure;Samples;Min_cycle;Max_cycle;Signal;HPM_P1;HPM_P2
2023/04/21 00:00:55;;;;;;;35.03;22.17;;;7.60;99.90;;;;;;5016744;28;20045;-80
2023/04/21 00:03:22;;;;;;;41.40;24.50;;;7.60;99.90;;;;;;5020011;28;20033;-79
2023/04/21 00:05:48;;;;;;;35.45;23.45;;;7.60;99.90;;;;;;5007433;28;20040;-79
2023/04/21 00:08:14;;;;;;;40.17;23.80;;;7.60;99.90;;;;;;5009723;28;20406;-79
2023/04/21 00:10:39;;;;;;;37.35;23.38;;;7.60;99.90;;;;;;5023455;28;20049;-78
2023/04/21 00:13:05;;;;;;;41.65;24.52;;;7.60;99.90;;;;;;5007273;28;20034;-79
2023/04/21 00:15:31;;;;;;;44.85;24.90;;;7.60;99.90;;;;;;5001542;28;20037;-79
2023/04/21 00:17:58;;;;;;;44.25;25.30;;;7.60;99.90;;;;;;5005112;28;20259;-79
2023/04/21 00:20:25;;;;;;;42.95;27.08;;;7.60;99.90;;;;;;5007076;28;20071;-79
2023/04/21 00:22:54;;;;;;;38.88;24.92;;;7.60;99.90;;;;;;5023795;28;20503;-79
2023/04/21 00:25:20;;;;;;;42.90;26.00;;;7.60;99.90;;;;;;5008236;28;20466;-80
2023/04/21 00:27:45;;;;;;;41.10;24.85;;;7.60;99.90;;;;;;4999988;28;20109;-80
2023/04/21 00:30:11;;;;;;;38.83;25.80;;;7.60;99.90;;;;;;5018169;28;20474;-80
2023/04/21 00:32:37;;;;;;;44.05;25.35;;;7.60;99.90;;;;;;5007865;28;20052;-79
2023/04/21 00:35:03;;;;;;;44.40;26.58;;;7.60;99.90;;;;;;5003833;28;20068;-79
2023/04/21 00:37:28;;;;;;;38.03;22.58;;;7.60;99.90;;;;;;5005018;28;20026;-79
2023/04/21 00:39:54;;;;;;;43.20;26.15;;;7.60;99.90;;;;;;5001632;28;20021;-79
2023/04/21 00:42:20;;;;;;;47.05;26.73;;;7.50;99.90;;;;;;5003952;28;20493;-80
2023/04/21 00:44:45;;;;;;;43.72;26.45;;;7.50;99.90;;;;;;5002936;28;20052;-79
2023/04/21 00:47:11;;;;;;;45.05;27.67;;;7.50;99.90;;;;;;5020991;28;20112;-79
2023/04/21 00:49:36;;;;;;;43.50;27.23;;;7.50;99.90;;;;;;5014954;28;20030;-79
2023/04/21 00:52:04;;;;;;;46.08;28.35;;;7.50;99.90;;;;;;5007450;28;20034;-79
2023/04/21 00:54:29;;;;;;;42.72;25.40;;;7.50;99.90;;;;;;5017206;28;20030;-80
2023/04/21 00:56:57;;;;;;;43.97;26.65;;;7.50;99.90;;;;;;5017201;28;20042;-80
2023/04/21 00:59:22;;;;;;;49.25;27.75;;;7.50;99.90;;;;;;5018458;28;20033;-78
2023/04/21 01:01:48;;;;;;;46.05;28.08;;;7.50;99.90;;;;;;5021004;28;20033;-80
2023/04/21 01:04:14;;;;;;;51.03;28.48;;;7.50;99.90;;;;;;5026027;28;20034;-79
2023/04/21 01:06:39;;;;;;;46.28;26.60;;;7.50;99.90;;;;;;5017899;28;20079;-79
2023/04/21 01:09:05;;;;;;;48.40;26.95;;;7.50;99.90;;;;;;5024811;28;20367;-79
2023/04/21 01:11:31;;;;;;;49.67;28.30;;;7.50;99.90;;;;;;5006034;28;20038;-80
2023/04/21 01:13:56;;;;;;;49.83;30.08;;;7.50;99.90;;;;;;5002646;28;20045;-79
2023/04/21 01:16:22;;;;;;;52.22;28.48;;;7.50;99.90;;;;;;5007704;28;20034;-79
2023/04/21 01:18:49;;;;;;;55.40;29.13;;;7.50;99.90;;;;;;5002061;28;20534;-79
2023/04/21 01:21:15;;;;;;;52.28;28.08;;;7.50;99.90;;;;;;5019632;28;20053;-80
2023/04/21 01:23:41;;;;;;;53.08;29.42;;;7.50;99.90;;;;;;5020672;28;20121;-79
2023/04/21 01:26:06;;;;;;;52.78;28.20;;;7.50;99.90;;;;;;4998242;28;20455;-79
2023/04/21 01:28:32;;;;;;;49.30;27.92;;;7.50;99.90;;;;;;5005854;28;20096;-79
2023/04/21 01:30:57;;;;;;;53.25;29.33;;;7.40;99.90;;;;;;5023064;28;20444;-79
2023/04/21 01:33:23;;;;;;;55.13;29.00;;;7.40;99.90;;;;;;5001689;28;20037;-79
2023/04/21 01:35:49;;;;;;;52.38;27.95;;;7.50;99.90;;;;;;5016693;28;20463;-79
2023/04/21 01:38:18;;;;;;;57.30;29.70;;;7.50;99.90;;;;;;5001492;28;20030;-79
2023/04/21 01:40:45;;;;;;;48.95;26.65;;;7.50;99.90;;;;;;5017757;28;20033;-79
2023/04/21 01:43:11;;;;;;;54.03;30.75;;;7.50;99.90;;;;;;5016076;28;20136;-79
2023/04/21 01:45:36;;;;;;;52.63;29.58;;;7.50;99.90;;;;;;5001112;28;20494;-79
2023/04/21 01:48:02;;;;;;;56.38;32.55;;;7.50;99.90;;;;;;5001013;28;20045;-78
2023/04/21 01:50:28;;;;;;;49.60;29.02;;;7.50;99.90;;;;;;5005040;28;20553;-80
2023/04/21 01:52:53;;;;;;;56.53;30.85;;;7.50;99.90;;;;;;5001733;28;20120;-79
2023/04/21 01:55:19;;;;;;;51.78;29.85;;;7.50;99.90;;;;;;5015802;28;20501;-79
2023/04/21 01:57:45;;;;;;;52.38;30.80;;;7.50;99.90;;;;;;5015534;28;20437;-79
2023/04/21 02:00:11;;;;;;;50.45;28.48;;;7.50;99.90;;;;;;5016064;28;20045;-79
2023/04/21 02:02:36;;;;;;;50.58;27.77;;;7.50;99.90;;;;;;5014092;28;20475;-79
2023/04/21 02:05:02;;;;;;;39.00;23.40;;;7.50;99.90;;;;;;5003528;28;20064;-79
2023/04/21 02:07:28;;;;;;;50.80;28.65;;;7.60;99.90;;;;;;5001759;28;20616;-79
2023/04/21 02:09:53;;;;;;;42.42;24.50;;;7.60;99.90;;;;;;5001772;28;20037;-79
2023/04/21 02:12:19;;;;;;;45.25;25.77;;;7.50;99.90;;;;;;4999166;28;20037;-79
2023/04/21 02:14:46;;;;;;;52.65;30.05;;;7.50;99.90;;;;;;5014435;28;20022;-80
2023/04/21 02:17:13;;;;;;;54.08;30.08;;;7.50;99.90;;;;;;5021418;28;20038;-80
2023/04/21 02:19:38;;;;;;;57.08;30.55;;;7.50;99.90;;;;;;5014081;28;20055;-79
2023/04/21 02:22:06;;;;;;;55.88;30.88;;;7.50;99.90;;;;;;5004286;28;20037;-80
2023/04/21 02:24:31;;;;;;;52.88;29.63;;;7.50;99.90;;;;;;5016687;28;20113;-79
2023/04/21 02:26:57;;;;;;;51.53;29.55;;;7.50;99.90;;;;;;5015080;28;20146;-79
2023/04/21 02:29:23;;;;;;;35.28;20.70;;;7.50;99.90;;;;;;5015428;28;20030;-81
2023/04/21 02:31:48;;;;;;;53.90;31.25;;;7.50;99.90;;;;;;5002410;28;20064;-81
2023/04/21 02:34:14;;;;;;;53.60;31.10;;;7.50;99.90;;;;;;5000634;28;20060;-80
2023/04/21 02:36:39;;;;;;;35.83;20.92;;;7.50;99.90;;;;;;5028223;28;20489;-81
2023/04/21 02:39:05;;;;;;;54.05;28.65;;;7.50;99.90;;;;;;5001933;28;20184;-80
2023/04/21 02:41:30;;;;;;;57.08;30.92;;;7.50;99.90;;;;;;4993076;28;20033;-81
2023/04/21 02:43:56;;;;;;;55.03;30.20;;;7.50;99.90;;;;;;5032264;28;20076;-81
2023/04/21 02:46:21;;;;;;;50.80;29.00;;;7.50;99.90;;;;;;5005361;28;20025;-80
2023/04/21 02:48:47;;;;;;;54.67;29.80;;;7.50;99.90;;;;;;5010287;28;20034;-81
2023/04/21 02:51:13;;;;;;;45.67;23.70;;;7.50;99.90;;;;;;5007174;28;20041;-81
2023/04/21 02:53:39;;;;;;;53.88;28.52;;;7.60;99.90;;;;;;5000805;28;20033;-81
2023/04/21 02:56:07;;;;;;;56.53;30.27;;;7.50;99.90;;;;;;5014781;28;20041;-81
2023/04/21 02:58:36;;;;;;;32.72;19.27;;;7.50;99.90;;;;;;5004808;28;20502;-81
2023/04/21 03:01:02;;;;;;;53.35;29.38;;;7.50;99.90;;;;;;5015364;28;20069;-81
2023/04/21 03:03:28;;;;;;;59.22;32.63;;;7.50;99.90;;;;;;5012580;28;20033;-81
2023/04/21 03:06:01;;;;;;;51.45;27.73;;;7.50;99.90;;;;;;5019899;28;20034;-81
2023/04/21 03:08:26;;;;;;;56.55;30.50;;;7.50;99.90;;;;;;5018345;28;20087;-80
2023/04/21 03:10:52;;;;;;;53.33;29.73;;;7.50;99.90;;;;;;4997669;28;20030;-81
2023/04/21 03:13:17;;;;;;;55.92;28.80;;;7.50;99.90;;;;;;5016496;28;20038;-81
2023/04/21 03:15:43;;;;;;;51.83;28.15;;;7.50;99.90;;;;;;5016376;28;20045;-81
2023/04/21 03:18:09;;;;;;;57.40;30.65;;;7.50;99.90;;;;;;5024133;28;20076;-81
2023/04/21 03:20:35;;;;;;;58.67;30.58;;;7.60;99.90;;;;;;5017532;28;20045;-81
2023/04/21 03:23:00;;;;;;;59.88;30.08;;;7.50;99.90;;;;;;5022753;28;20061;-81
2023/04/21 03:25:26;;;;;;;57.08;31.92;;;7.50;99.90;;;;;;5003421;28;20117;-82
2023/04/21 03:27:52;;;;;;;53.08;29.17;;;7.60;99.90;;;;;;5019429;28;20072;-81
2023/04/21 03:30:18;;;;;;;48.22;28.17;;;7.60;99.90;;;;;;5017978;28;20060;-82
2023/04/21 03:32:44;;;;;;;52.58;29.35;;;7.60;99.90;;;;;;5023635;28;20060;-82
2023/04/21 03:35:09;;;;;;;38.63;22.50;;;7.60;99.90;;;;;;5005210;28;20095;-81
2023/04/21 03:37:35;;;;;;;33.00;18.88;;;7.60;99.90;;;;;;5006344;28;20073;-81
2023/04/21 03:40:01;;;;;;;55.58;30.45;;;7.60;99.90;;;;;;5004277;28;20037;-81
2023/04/21 03:42:28;;;;;;;58.03;32.17;;;7.60;99.90;;;;;;5003143;28;20038;-81
2023/04/21 03:44:54;;;;;;;57.30;30.70;;;7.60;99.90;;;;;;5018617;28;20066;-79
2023/04/21 03:47:19;;;;;;;41.67;24.63;;;7.60;99.90;;;;;;5004325;28;20060;-79
2023/04/21 03:49:45;;;;;;;46.78;26.48;;;7.60;99.90;;;;;;5005393;28;20041;-80
2023/04/21 03:52:11;;;;;;;58.35;31.73;;;7.60;99.90;;;;;;5003280;28;20084;-80
2023/04/21 03:54:37;;;;;;;43.30;23.38;;;7.60;99.90;;;;;;4997680;28;20502;-79
2023/04/21 03:57:02;;;;;;;53.35;30.65;;;7.60;99.90;;;;;;5022448;28;20048;-79
2023/04/21 03:59:28;;;;;;;59.20;31.25;;;7.60;99.90;;;;;;5018480;28;20037;-79
2023/04/21 04:01:54;;;;;;;60.17;33.25;;;7.60;99.90;;;;;;5002167;28;20041;-79
2023/04/21 04:04:19;;;;;;;59.28;32.15;;;7.60;99.90;;;;;;5020953;28;20049;-80
2023/04/21 04:06:45;;;;;;;66.63;35.55;;;7.60;99.90;;;;;;5020845;28;20084;-80
2023/04/21 04:09:11;;;;;;;57.65;32.60;;;7.60;99.90;;;;;;5005131;28;20033;-80
2023/04/21 04:11:36;;;;;;;61.33;33.75;;;7.60;99.90;;;;;;5017744;28;20456;-79
2023/04/21 04:14:02;;;;;;;62.85;33.35;;;7.60;99.90;;;;;;5024790;28;20463;-79
2023/04/21 04:16:27;;;;;;;52.13;28.98;;;7.50;99.90;;;;;;5001892;28;20433;-79
2023/04/21 04:18:53;;;;;;;56.22;32.58;;;7.50;99.90;;;;;;5024417;28;20030;-80
2023/04/21 04:21:19;;;;;;;51.67;30.75;;;7.60;99.90;;;;;;5004394;28;20038;-80
2023/04/21 04:23:45;;;;;;;56.10;29.63;;;7.60;99.90;;;;;;5001598;28;20044;-79
2023/04/21 04:26:11;;;;;;;56.63;32.15;;;7.60;99.90;;;;;;5008730;28;20037;-80
2023/04/21 04:28:37;;;;;;;64.10;35.03;;;7.50;99.90;;;;;;5000293;28;20049;-80
2023/04/21 04:31:02;;;;;;;65.60;35.03;;;7.50;99.90;;;;;;5018183;28;20037;-80
2023/04/21 04:33:28;;;;;;;61.25;32.78;;;7.50;99.90;;;;;;5007740;28;20501;-79
2023/04/21 04:35:53;;;;;;;67.18;33.72;;;7.50;99.90;;;;;;5018578;28;20490;-79
2023/04/21 04:38:19;;;;;;;62.78;33.50;;;7.50;99.90;;;;;;5023368;28;20466;-79
2023/04/21 04:40:52;;;;;;;58.95;33.22;;;7.40;99.90;;;;;;5020812;28;20033;-79
2023/04/21 04:43:17;;;;;;;65.80;34.75;;;7.40;99.90;;;;;;5006630;28;20041;-79
2023/04/21 04:45:44;;;;;;;61.83;31.85;;;7.40;99.90;;;;;;5006662;28;20048;-80
2023/04/21 04:48:10;;;;;;;60.47;31.48;;;7.30;99.90;;;;;;5018074;28;20057;-79
2023/04/21 04:50:35;;;;;;;63.47;32.25;;;7.30;99.90;;;;;;5022841;28;20060;-80
2023/04/21 04:53:01;;;;;;;43.90;25.38;;;7.30;99.90;;;;;;5031489;28;20113;-79
2023/04/21 04:55:26;;;;;;;35.25;20.20;;;7.30;99.90;;;;;;5001099;28;20037;-79
2023/04/21 04:57:52;;;;;;;36.70;21.70;;;7.30;99.90;;;;;;5006646;28;20029;-80
2023/04/21 05:00:18;;;;;;;56.45;29.02;;;7.40;99.90;;;;;;5016949;28;20029;-79
2023/04/21 05:02:43;;;;;;;64.05;34.33;;;7.30;99.90;;;;;;5001688;28;20379;-79
2023/04/21 05:05:09;;;;;;;50.40;26.92;;;7.20;99.90;;;;;;5015083;28;20034;-79
2023/04/21 05:07:34;;;;;;;60.28;32.50;;;7.20;99.90;;;;;;5003509;28;20025;-79
2023/04/21 05:10:00;;;;;;;66.68;34.40;;;7.20;99.90;;;;;;5023691;28;20052;-79
2023/04/21 05:12:25;;;;;;;61.53;33.75;;;7.10;99.90;;;;;;4999682;28;20029;-80
2023/04/21 05:14:51;;;;;;;48.10;26.25;;;7.10;99.90;;;;;;5019205;28;20028;-80
2023/04/21 05:17:16;;;;;;;53.15;29.15;;;7.20;99.90;;;;;;5017233;28;20087;-79
2023/04/21 05:19:42;;;;;;;55.13;29.25;;;7.20;99.90;;;;;;5028881;28;20034;-81
2023/04/21 05:22:07;;;;;;;63.47;35.65;;;7.30;99.90;;;;;;5016999;28;20048;-80
2023/04/21 05:24:33;;;;;;;64.53;33.63;;;7.20;99.90;;;;;;4991676;28;20022;-80
2023/04/21 05:27:00;;;;;;;66.95;35.60;;;7.10;99.90;;;;;;5020235;28;20390;-82
2023/04/21 05:29:25;;;;;;;67.10;35.58;;;7.00;99.90;;;;;;5013912;28;20033;-80
2023/04/21 05:31:51;;;;;;;65.90;35.67;;;7.10;99.90;;;;;;5002950;28;20552;-79
2023/04/21 05:34:16;;;;;;;67.75;34.28;;;7.00;99.90;;;;;;5006278;28;21001;-81
2023/04/21 05:36:42;;;;;;;66.88;33.92;;;7.00;99.90;;;;;;5018648;28;20421;-80
2023/04/21 05:39:08;;;;;;;70.35;35.42;;;7.10;99.90;;;;;;5019199;28;20045;-81
2023/04/21 05:41:33;;;;;;;72.38;37.25;;;7.10;99.90;;;;;;4999697;28;20048;-80
2023/04/21 05:43:59;;;;;;;82.45;35.88;;;7.10;99.90;;;;;;5019638;28;20056;-81
2023/04/21 05:46:25;;;;;;;70.55;35.47;;;7.10;99.90;;;;;;5001888;28;20037;-81
2023/04/21 05:48:50;;;;;;;81.25;39.67;;;7.10;99.90;;;;;;5017244;28;20030;-80
2023/04/21 05:51:16;;;;;;;90.13;40.42;;;7.20;99.90;;;;;;5004530;28;20064;-80
2023/04/21 05:53:42;;;;;;;75.40;38.13;;;7.30;99.90;;;;;;5002495;28;20029;-81
2023/04/21 05:56:08;;;;;;;96.10;42.05;;;7.40;99.90;;;;;;4999021;28;20090;-81
2023/04/21 05:58:34;;;;;;;91.55;43.75;;;7.40;99.90;;;;;;4992830;28;20545;-80
2023/04/21 06:01:00;;;;;;;93.38;41.40;;;7.50;99.90;;;;;;5025386;28;20030;-79
2023/04/21 06:03:26;;;;;;;87.32;40.15;;;7.50;99.90;;;;;;5031269;28;20429;-81
2023/04/21 06:05:54;;;;;;;91.70;44.05;;;7.50;99.90;;;;;;5015536;28;20061;-80
2023/04/21 06:08:20;;;;;;;89.63;43.05;;;7.50;99.90;;;;;;5004175;28;20086;-80
2023/04/21 06:10:46;;;;;;;83.75;39.40;;;7.60;99.90;;;;;;5034372;28;20026;-80
2023/04/21 06:13:12;;;;;;;85.53;40.78;;;7.70;99.90;;;;;;5017660;28;20065;-80
2023/04/21 06:15:37;;;;;;;88.18;42.08;;;7.80;99.90;;;;;;5004475;28;20531;-80
2023/04/21 06:18:03;;;;;;;86.07;42.08;;;7.90;99.90;;;;;;5033639;28;20033;-80
2023/04/21 06:20:28;;;;;;;87.13;40.17;;;8.00;99.90;;;;;;5011691;28;20021;-80
2023/04/21 06:22:54;;;;;;;69.85;35.28;;;8.10;99.90;;;;;;5020247;28;20033;-80
2023/04/21 06:25:19;;;;;;;77.00;38.90;;;8.30;99.90;;;;;;5004730;28;20032;-81
2023/04/21 06:27:45;;;;;;;92.38;45.78;;;8.40;99.90;;;;;;5020385;28;20029;-80
2023/04/21 06:30:11;;;;;;;83.20;41.28;;;8.50;99.90;;;;;;5018101;28;20026;-79
2023/04/21 06:32:37;;;;;;;103.80;46.80;;;8.70;99.90;;;;;;5014936;28;20060;-81
2023/04/21 06:35:02;;;;;;;98.50;44.42;;;8.90;99.90;;;;;;5012790;28;20071;-80
2023/04/21 06:37:28;;;;;;;93.68;42.22;;;9.20;99.90;;;;;;5008703;28;20896;-80
2023/04/21 06:39:54;;;;;;;87.60;40.55;;;9.20;99.90;;;;;;5014855;28;20036;-80
2023/04/21 06:42:19;;;;;;;66.72;32.80;;;9.50;99.90;;;;;;4998326;28;20101;-80
2023/04/21 06:44:45;;;;;;;80.85;38.17;;;9.60;99.90;;;;;;5032601;28;20395;-79
2023/04/21 06:47:10;;;;;;;68.85;37.08;;;9.70;99.90;;;;;;5028878;28;20437;-80
2023/04/21 06:49:36;;;;;;;60.25;32.80;;;9.70;99.90;;;;;;5015484;28;20041;-80
2023/04/21 06:52:02;;;;;;;74.40;37.95;;;9.80;99.90;;;;;;5031338;28;20029;-80
2023/04/21 06:54:28;;;;;;;92.15;43.80;;;9.90;99.90;;;;;;5002997;28;20037;-80
2023/04/21 06:56:54;;;;;;;70.47;35.50;;;9.90;99.90;;;;;;5017644;28;20091;-80
2023/04/21 06:59:19;;;;;;;71.35;38.42;;;10.00;99.90;;;;;;5005778;28;20037;-80
2023/04/21 07:01:47;;;;;;;76.32;40.97;;;10.10;99.90;;;;;;5013530;28;20569;-80
2023/04/21 07:04:13;;;;;;;71.28;38.20;;;10.20;99.90;;;;;;5001273;28;20418;-80
2023/04/21 07:06:39;;;;;;;79.90;39.92;;;10.20;99.90;;;;;;5016128;28;20038;-80
2023/04/21 07:09:05;;;;;;;69.93;37.22;;;10.30;99.90;;;;;;5014469;28;20063;-78
2023/04/21 07:11:31;;;;;;;76.10;41.85;;;10.40;99.90;;;;;;5004178;28;20076;-78
2023/04/21 07:14:00;;;;;;;73.20;38.88;;;10.50;99.90;;;;;;5015093;28;20037;-77
2023/04/21 07:16:25;;;;;;;66.13;37.67;;;10.50;99.90;;;;;;5002884;28;20053;-78
2023/04/21 07:18:51;;;;;;;77.70;40.20;;;10.60;99.90;;;;;;5000714;28;20293;-78
2023/04/21 07:21:16;;;;;;;65.05;37.30;;;10.80;99.90;;;;;;5007611;28;20045;-77
2023/04/21 07:23:42;;;;;;;55.17;33.13;;;10.80;99.90;;;;;;5001007;28;20044;-78
2023/04/21 07:26:08;;;;;;;64.25;35.95;;;11.00;99.90;;;;;;5015239;28;20180;-77
2023/04/21 07:28:33;;;;;;;50.65;32.38;;;11.10;99.90;;;;;;5020752;28;20489;-77
2023/04/21 07:30:59;;;;;;;56.38;35.00;;;11.20;99.90;;;;;;5000416;28;20040;-78
2023/04/21 07:33:24;;;;;;;43.97;27.75;;;11.30;99.90;;;;;;5017094;28;20060;-78
2023/04/21 07:35:50;;;;;;;50.78;29.70;;;11.40;99.90;;;;;;4999720;28;20681;-78
2023/04/21 07:38:15;;;;;;;56.15;34.50;;;11.40;99.90;;;;;;5000700;28;20482;-77
2023/04/21 07:40:41;;;;;;;37.65;25.25;;;11.60;99.90;;;;;;5015751;28;20033;-78
2023/04/21 07:43:06;;;;;;;49.00;31.88;;;11.80;99.90;;;;;;5028048;28;20026;-77
2023/04/21 07:45:32;;;;;;;50.78;30.48;;;11.90;99.90;;;;;;5002368;28;20022;-77
2023/04/21 07:47:58;;;;;;;39.90;25.90;;;12.10;99.90;;;;;;4997882;28;20038;-77
2023/04/21 07:50:23;;;;;;;46.42;29.08;;;12.10;99.90;;;;;;5003879;28;20485;-77
2023/04/21 07:52:49;;;;;;;37.97;24.15;;;12.30;99.90;;;;;;5000753;28;20022;-78
2023/04/21 07:55:15;;;;;;;50.20;31.23;;;12.40;99.90;;;;;;5019107;28;21206;-78
2023/04/21 07:57:40;;;;;;;45.35;31.65;;;12.50;99.90;;;;;;5019427;28;20034;-78
2023/04/21 08:00:06;;;;;;;45.40;27.30;;;12.60;99.90;;;;;;5013394;28;20033;-78
2023/04/21 08:02:32;;;;;;;48.92;32.15;;;12.70;99.90;;;;;;5003712;28;20172;-78
2023/04/21 08:04:57;;;;;;;50.00;31.52;;;12.80;99.90;;;;;;5013389;28;20117;-78
2023/04/21 08:07:23;;;;;;;48.78;30.33;;;12.90;99.90;;;;;;5005515;28;20462;-78
2023/04/21 08:09:49;;;;;;;48.67;31.38;;;12.90;99.90;;;;;;5003919;28;20033;-78
2023/04/21 08:12:14;;;;;;;39.08;25.67;;;13.00;99.90;;;;;;5009014;28;20042;-78
2023/04/21 08:14:40;;;;;;;47.05;31.98;;;13.10;99.90;;;;;;5020374;28;20037;-78
2023/04/21 08:17:05;;;;;;;41.92;27.35;;;13.10;99.90;;;;;;5018632;28;20501;-78
2023/04/21 08:19:31;;;;;;;38.03;25.42;;;13.20;99.90;;;;;;5005877;28;20030;-79
2023/04/21 08:21:57;;;;;;;42.80;27.73;;;13.20;99.90;;;;;;5002056;28;20165;-78
2023/04/21 08:24:23;;;;;;;35.97;22.98;;;13.30;99.90;;;;;;5008398;28;20029;-78
2023/04/21 08:26:48;;;;;;;35.50;22.88;;;13.30;99.90;;;;;;5003533;28;20121;-78
2023/04/21 08:29:14;;;;;;;39.97;23.83;;;13.40;99.90;;;;;;5007047;28;20572;-78
2023/04/21 08:31:40;;;;;;;33.03;20.92;;;13.50;99.90;;;;;;5017736;28;20042;-78
2023/04/21 08:34:06;;;;;;;38.35;25.42;;;13.50;99.90;;;;;;5013721;28;20116;-78
2023/04/21 08:36:31;;;;;;;30.83;19.98;;;13.60;99.90;;;;;;5001512;28;20052;-78
2023/04/21 08:38:57;;;;;;;41.67;29.05;;;13.70;99.90;;;;;;5016465;28;20026;-78
2023/04/21 08:41:25;;;;;;;39.80;26.38;;;13.80;99.90;;;;;;5006063;28;20481;-78
2023/04/21 08:43:50;;;;;;;43.53;27.50;;;14.00;99.90;;;;;;5015795;28;20482;-78
2023/04/21 08:46:16;;;;;;;41.00;26.73;;;14.10;99.90;;;;;;5006475;28;20034;-78
2023/04/21 08:48:41;;;;;;;40.05;28.02;;;14.20;99.90;;;;;;5014122;28;20045;-78
2023/04/21 08:51:11;;;;;;;40.85;28.02;;;14.30;99.90;;;;;;5000923;28;20022;-78
2023/04/21 08:53:37;;;;;;;39.33;28.02;;;14.40;99.90;;;;;;5008393;28;20034;-79
2023/04/21 08:56:02;;;;;;;34.10;23.77;;;14.50;99.90;;;;;;5000358;28;20041;-78
2023/04/21 08:58:28;;;;;;;32.97;22.95;;;14.50;99.90;;;;;;5008193;28;20045;-79
2023/04/21 09:00:53;;;;;;;39.33;27.83;;;14.50;99.90;;;;;;5015895;28;20086;-78
2023/04/21 09:03:26;;;;;;;44.92;30.30;;;14.60;99.90;;;;;;5008159;28;20044;-79
2023/04/21 09:06:04;;;;;;;38.85;26.90;;;14.90;99.90;;;;;;5017619;28;20022;-78
2023/04/21 09:08:30;;;;;;;28.98;20.45;;;14.90;99.90;;;;;;5001423;28;20505;-78
2023/04/21 09:10:56;;;;;;;38.92;27.27;;;15.00;99.90;;;;;;5002385;28;20133;-78
2023/04/21 09:13:28;;;;;;;40.47;28.85;;;15.00;99.90;;;;;;5015278;28;20120;-79
2023/04/21 09:15:54;;;;;;;37.20;26.02;;;15.20;99.90;;;;;;5002127;28;20095;-78
2023/04/21 09:18:21;;;;;;;39.85;25.98;;;15.30;99.90;;;;;;5021141;28;20037;-78
2023/04/21 09:20:48;;;;;;;36.85;25.60;;;15.40;99.90;;;;;;5004163;28;20040;-78
2023/04/21 09:23:14;;;;;;;34.85;24.20;;;15.60;99.90;;;;;;5022599;28;20057;-78
2023/04/21 09:25:40;;;;;;;32.72;22.33;;;15.70;99.90;;;;;;4991374;28;20054;-78
2023/04/21 09:28:09;;;;;;;31.48;20.25;;;15.90;99.90;;;;;;5016498;28;20402;-78
2023/04/21 09:30:36;;;;;;;33.22;24.17;;;15.90;99.90;;;;;;4991102;28;20080;-78
2023/04/21 09:33:01;;;;;;;33.90;23.40;;;15.90;99.90;;;;;;5016492;28;20064;-79
2023/04/21 09:35:28;;;;;;;33.30;23.60;;;16.00;99.90;;;;;;5000219;28;20053;-79
2023/04/21 09:37:53;;;;;;;31.35;22.95;;;16.00;99.90;;;;;;5002002;28;20491;-78
2023/04/21 09:40:19;;;;;;;31.67;23.70;;;16.10;99.90;;;;;;5000542;28;20101;-78
2023/04/21 09:42:45;;;;;;;33.92;22.70;;;16.20;99.90;;;;;;5017706;28;20629;-78
2023/04/21 09:45:10;;;;;;;36.58;24.10;;;16.30;99.90;;;;;;5006100;28;25042;-78
2023/04/21 09:47:39;;;;;;;30.52;21.60;;;16.30;99.90;;;;;;5015025;28;20102;-78
2023/04/21 09:50:09;;;;;;;29.58;21.63;;;16.20;99.90;;;;;;5013611;28;20068;-78
2023/04/21 09:52:36;;;;;;;33.45;22.88;;;16.40;99.90;;;;;;5013716;28;20042;-78
2023/04/21 09:55:03;;;;;;;30.75;21.83;;;16.50;99.90;;;;;;5002300;28;20033;-78
2023/04/21 09:57:30;;;;;;;33.42;24.23;;;16.70;99.90;;;;;;5014519;28;20065;-77
2023/04/21 10:00:01;;;;;;;31.77;22.17;;;16.80;99.90;;;;;;5019038;28;20080;-78
2023/04/21 10:02:29;;;;;;;34.25;21.35;;;16.90;99.90;;;;;;5021124;28;20043;-78
2023/04/21 10:04:54;;;;;;;33.90;22.33;;;16.90;99.90;;;;;;4999414;28;20037;-78
2023/04/21 10:07:20;;;;;;;30.40;22.00;;;16.90;99.90;;;;;;5000190;28;20084;-77
2023/04/21 10:09:50;;;;;;;26.58;19.33;;;17.00;99.90;;;;;;5028669;28;20072;-79
2023/04/21 10:12:15;;;;;;;32.25;21.50;;;17.00;99.90;;;;;;4991752;28;20034;-78
2023/04/21 10:14:41;;;;;;;30.83;21.90;;;17.00;99.90;;;;;;5000632;28;20033;-78
2023/04/21 10:17:08;;;;;;;29.80;21.77;;;17.10;99.90;;;;;;5018602;28;20502;-77
2023/04/21 10:19:38;;;;;;;33.03;22.30;;;17.10;99.90;;;;;;5003493;28;20037;-78
2023/04/21 10:22:06;;;;;;;34.00;22.08;;;17.20;99.90;;;;;;5014466;28;20107;-78
2023/04/21 10:24:32;;;;;;;28.83;21.67;;;17.20;99.90;;;;;;5020794;28;20037;-77
2023/04/21 10:26:58;;;;;;;29.77;21.02;;;17.30;99.90;;;;;;5020578;28;20034;-77
2023/04/21 10:29:28;;;;;;;29.85;21.83;;;17.30;99.90;;;;;;5016669;28;20684;-78
2023/04/21 10:31:54;;;;;;;28.38;20.80;;;17.30;99.90;;;;;;5003680;28;20040;-77
2023/04/21 10:34:21;;;;;;;30.38;22.45;;;17.30;99.90;;;;;;5021246;28;20116;-77
2023/04/21 10:37:07;;;;;;;28.23;20.67;;;17.30;99.90;;;;;;5015141;28;20150;-78
2023/04/21 10:39:44;;;;;;;32.83;21.75;;;17.30;99.90;;;;;;5014552;28;20115;-77
2023/04/21 10:42:12;;;;;;;29.98;20.90;;;17.40;99.90;;;;;;5012952;28;20033;-77
2023/04/21 10:44:41;;;;;;;30.45;21.92;;;17.40;99.90;;;;;;5014212;28;20033;-78
2023/04/21 10:47:07;;;;;;;27.15;20.90;;;17.40;99.90;;;;;;5015799;28;20410;-77
2023/04/21 10:49:36;;;;;;;32.08;23.33;;;17.40;99.90;;;;;;4992922;28;20033;-77
2023/04/21 10:52:03;;;;;;;29.35;20.15;;;17.40;99.90;;;;;;5022418;28;20034;-78
2023/04/21 10:55:04;;;;;;;30.30;22.08;;;17.30;99.90;;;;;;5005268;28;20482;-78
2023/04/21 10:57:31;;;;;;;30.92;22.55;;;17.40;99.90;;;;;;5019288;28;20033;-78
2023/04/21 10:59:56;;;;;;;29.85;21.73;;;17.40;99.90;;;;;;4999911;28;20413;-78
2023/04/21 11:02:22;;;;;;;31.77;21.55;;;17.40;99.90;;;;;;5015980;28;20145;-78
2023/04/21 11:04:52;;;;;;;29.67;21.75;;;17.40;99.90;;;;;;5031879;28;20125;-78
2023/04/21 11:07:18;;;;;;;31.60;21.67;;;17.40;99.90;;;;;;5015968;28;20033;-77
2023/04/21 11:09:45;;;;;;;29.63;19.58;;;17.40;99.90;;;;;;5016759;28;20044;-77
2023/04/21 11:12:12;;;;;;;32.80;21.63;;;17.40;99.90;;;;;;5016718;28;20134;-78
2023/04/21 11:14:40;;;;;;;31.92;19.58;;;17.40;99.90;;;;;;5004293;28;20202;-77
2023/04/21 11:17:12;;;;;;;26.48;19.42;;;17.40;99.90;;;;;;5033896;28;20149;-78
2023/04/21 11:19:38;;;;;;;26.50;19.95;;;17.50;99.90;;;;;;5016920;28;20380;-77
2023/04/21 11:22:04;;;;;;;32.10;23.02;;;17.70;99.90;;;;;;5017023;28;20582;-77
2023/04/21 11:24:32;;;;;;;30.50;21.63;;;17.80;99.90;;;;;;5028288;28;20025;-77
2023/04/21 11:27:00;;;;;;;31.92;20.30;;;18.20;99.90;;;;;;5016472;28;20437;-77
2023/04/21 11:29:26;;;;;;;25.13;18.02;;;18.20;99.90;;;;;;4996740;28;20034;-77
2023/04/21 11:31:52;;;;;;;35.05;22.35;;;18.50;99.90;;;;;;5006155;28;20033;-77
2023/04/21 11:34:21;;;;;;;30.00;19.15;;;18.80;99.90;;;;;;5026415;28;20028;-77
2023/04/21 11:36:48;;;;;;;29.83;20.35;;;19.00;99.90;;;;;;5004391;28;20054;-77
2023/04/21 11:39:16;;;;;;;27.98;20.50;;;19.10;99.90;;;;;;5000043;28;20030;-77
2023/04/21 11:41:43;;;;;;;26.50;18.42;;;19.40;99.90;;;;;;5021689;28;20041;-77
2023/04/21 11:44:12;;;;;;;28.90;19.35;;;19.50;99.90;;;;;;5002020;28;20045;-77
2023/04/21 11:46:43;;;;;;;25.65;18.55;;;19.50;99.90;;;;;;5023896;28;20048;-77
2023/04/21 11:49:13;;;;;;;23.40;17.63;;;19.70;99.90;;;;;;5006897;28;20514;-77
2023/04/21 11:51:40;;;;;;;21.60;16.70;;;19.80;99.90;;;;;;4987188;28;20034;-78
2023/04/21 11:54:09;;;;;;;23.40;16.88;;;19.80;99.90;;;;;;5017176;28;21132;-77
2023/04/21 11:56:36;;;;;;;23.75;15.80;;;20.10;99.90;;;;;;5019499;28;20037;-77
2023/04/21 11:59:09;;;;;;;25.77;16.60;;;20.40;99.90;;;;;;5026953;28;20033;-77
2023/04/21 12:01:51;;;;;;;22.13;16.45;;;20.50;99.90;;;;;;5020136;28;20146;-77
2023/04/21 12:04:20;;;;;;;21.08;15.57;;;20.80;99.90;;;;;;5001302;28;20186;-77
2023/04/21 12:06:56;;;;;;;21.20;14.80;;;20.70;99.90;;;;;;5020868;28;20104;-78
2023/04/21 12:09:21;;;;;;;21.25;16.55;;;20.80;99.90;;;;;;5016068;28;20037;-77
2023/04/21 12:11:51;;;;;;;22.67;16.42;;;20.70;99.90;;;;;;5006030;28;20041;-77
2023/04/21 12:14:18;;;;;;;22.38;14.93;;;20.70;99.90;;;;;;5024736;28;20041;-77
2023/04/21 12:16:43;;;;;;;23.83;16.42;;;20.50;99.90;;;;;;5018244;28;20405;-77
2023/04/21 12:19:09;;;;;;;21.02;16.13;;;20.30;99.90;;;;;;5016941;28;20021;-78
2023/04/21 12:21:37;;;;;;;23.02;16.10;;;20.20;99.90;;;;;;5015529;28;20044;-78
2023/04/21 12:24:03;;;;;;;20.35;15.40;;;20.00;99.90;;;;;;5003306;28;20080;-77
2023/04/21 12:26:29;;;;;;;18.98;14.65;;;20.10;99.90;;;;;;5015670;28;20509;-77
2023/04/21 12:28:55;;;;;;;20.10;15.85;;;19.80;99.90;;;;;;5018308;28;20030;-77